createdAt,value
2017-12-21T00:00:56.664Z,6.66
2017-12-21T00:03:26.715Z,6.58
2017-12-21T00:05:55.044Z,6.65
2017-12-21T00:08:23.396Z,6.65
2017-12-21T00:10:51.747Z,6.73
2017-12-21T00:13:20.100Z,6.76
2017-12-21T00:15:49.222Z,6.73
2017-12-21T00:18:17.560Z,6.82
2017-12-21T00:20:46.000Z,6.76
2017-12-21T00:23:14.320Z,6.78
2017-12-21T00:25:42.644Z,6.77
2017-12-21T00:28:11.037Z,6.67
2017-12-21T00:30:39.462Z,6.69
2017-12-21T00:33:07.810Z,6.63
2017-12-21T00:35:36.156Z,6.70
2017-12-21T00:38:04.558Z,6.74
2017-12-21T00:40:32.904Z,6.72
2017-12-21T00:43:01.234Z,6.75
2017-12-21T00:45:29.588Z,6.79
2017-12-21T00:47:57.924Z,6.77
2017-12-21T00:50:26.295Z,6.82
2017-12-21T00:52:55.406Z,6.79
2017-12-21T00:55:23.865Z,6.77
2017-12-21T00:57:52.185Z,6.81
2017-12-21T01:00:20.499Z,6.95
2017-12-21T01:02:48.859Z,6.94
2017-12-21T01:05:17.210Z,6.88
2017-12-21T01:07:45.609Z,6.90
2017-12-21T01:10:13.923Z,6.96
2017-12-21T01:12:42.255Z,6.97
2017-12-21T01:15:10.630Z,6.99
2017-12-21T01:17:38.971Z,7.06
2017-12-21T01:20:08.056Z,7.14
2017-12-21T01:22:37.174Z,7.08
2017-12-21T01:25:05.489Z,7.10
2017-12-21T01:27:33.816Z,7.09
2017-12-21T01:30:03.032Z,7.07
2017-12-21T01:32:31.427Z,7.10
2017-12-21T01:34:59.769Z,7.03
2017-12-21T01:37:28.966Z,7.03
2017-12-21T01:39:57.252Z,7.05
2017-12-21T01:42:25.589Z,7.05
2017-12-21T01:44:53.905Z,7.14
2017-12-21T01:47:22.281Z,7.09
2017-12-21T01:49:51.368Z,7.07
2017-12-21T01:52:20.460Z,7.12
2017-12-21T01:54:49.568Z,7.09
2017-12-21T01:57:17.901Z,7.09
2017-12-21T01:59:46.282Z,7.06
2017-12-21T02:02:14.598Z,7.05
2017-12-21T02:04:42.933Z,7.04
2017-12-21T02:07:11.283Z,7.09
2017-12-21T02:09:39.659Z,7.06
2017-12-21T02:12:07.996Z,7.11
2017-12-21T02:14:37.112Z,7.11
2017-12-21T02:17:05.476Z,7.05
2017-12-21T02:19:34.556Z,7.10
2017-12-21T02:22:02.869Z,7.03
2017-12-21T02:24:31.267Z,7.06
2017-12-21T02:26:59.652Z,7.09
2017-12-21T02:29:28.756Z,7.12
2017-12-21T02:31:57.100Z,7.13
2017-12-21T02:34:25.473Z,7.12
2017-12-21T02:36:53.815Z,7.15
2017-12-21T02:39:22.133Z,7.17
2017-12-21T02:41:50.493Z,7.14
2017-12-21T02:44:18.826Z,7.23
2017-12-21T02:46:47.148Z,7.20
2017-12-21T02:49:15.579Z,7.25
2017-12-21T02:51:43.928Z,7.31
2017-12-21T02:54:12.256Z,7.18
2017-12-21T02:56:41.360Z,7.19
2017-12-21T02:59:10.547Z,7.27
2017-12-21T03:01:38.891Z,7.29
2017-12-21T03:04:07.237Z,7.29
2017-12-21T03:06:35.575Z,7.33
2017-12-21T03:09:03.904Z,7.34
2017-12-21T03:11:32.267Z,7.36
2017-12-21T03:14:00.580Z,7.43
2017-12-21T03:16:28.994Z,7.43
2017-12-21T03:18:57.320Z,7.42
2017-12-21T03:21:25.695Z,7.40
2017-12-21T03:23:53.999Z,7.39
2017-12-21T03:26:22.311Z,7.44
2017-12-21T03:28:51.431Z,7.36
2017-12-21T03:31:19.809Z,7.41
2017-12-21T03:33:48.136Z,7.37
2017-12-21T03:36:16.495Z,7.40
2017-12-21T03:38:44.832Z,7.43
2017-12-21T03:41:13.760Z,7.38
2017-12-21T03:43:42.135Z,7.38
2017-12-21T03:46:10.457Z,7.41
2017-12-21T03:48:39.568Z,7.36
2017-12-21T03:51:07.916Z,7.34
2017-12-21T03:53:37.119Z,7.37
2017-12-21T03:56:05.440Z,7.40
2017-12-21T03:58:33.821Z,7.31
2017-12-21T04:01:02.188Z,7.36
2017-12-21T04:03:30.508Z,7.34
2017-12-21T04:05:58.824Z,7.36
2017-12-21T04:08:27.196Z,7.36
2017-12-21T04:10:56.331Z,7.34
2017-12-21T04:13:24.662Z,7.31
2017-12-21T04:15:53.005Z,7.34
2017-12-21T04:18:21.429Z,7.34
2017-12-21T04:20:50.530Z,7.40
2017-12-21T04:23:19.628Z,7.38
2017-12-21T04:25:47.989Z,7.39
2017-12-21T04:28:17.170Z,7.39
2017-12-21T04:30:45.517Z,7.36
2017-12-21T04:33:13.860Z,7.44
2017-12-21T04:35:42.254Z,7.45
2017-12-21T04:38:10.594Z,7.43
2017-12-21T04:40:39.737Z,7.48
2017-12-21T04:43:08.088Z,7.47
2017-12-21T04:45:36.476Z,7.51
2017-12-21T04:48:04.832Z,7.51
2017-12-21T04:50:34.029Z,7.53
2017-12-21T04:53:03.216Z,7.54
2017-12-21T04:55:31.623Z,7.50
2017-12-21T04:58:00.050Z,7.49
2017-12-21T05:00:28.390Z,7.50
2017-12-21T05:02:56.732Z,7.54
2017-12-21T05:05:25.869Z,7.56
2017-12-21T05:07:54.203Z,7.57
2017-12-21T05:10:22.548Z,7.59
2017-12-21T05:12:50.876Z,7.63
2017-12-21T05:15:19.986Z,7.63
2017-12-21T05:17:48.322Z,7.60
2017-12-21T05:20:16.667Z,7.64
2017-12-21T05:22:44.988Z,7.64
2017-12-21T05:25:14.108Z,7.62
2017-12-21T05:27:42.433Z,7.56
2017-12-21T05:30:10.809Z,7.60
2017-12-21T05:32:39.144Z,7.60
2017-12-21T05:35:07.506Z,7.65
2017-12-21T05:37:36.615Z,7.70
2017-12-21T05:40:04.936Z,7.69
2017-12-21T05:42:33.296Z,7.73
2017-12-21T05:45:01.625Z,7.72
2017-12-21T05:47:30.758Z,7.69
2017-12-21T05:49:59.096Z,7.69
2017-12-21T05:52:28.224Z,7.79
2017-12-21T05:54:56.556Z,7.79
2017-12-21T05:57:24.884Z,8.09
2017-12-21T05:59:53.277Z,8.25
2017-12-21T06:02:21.724Z,8.01
2017-12-21T06:04:50.058Z,7.87
2017-12-21T06:07:18.400Z,7.78
2017-12-21T06:09:46.751Z,7.77
2017-12-21T06:12:15.089Z,7.77
2017-12-21T06:14:43.436Z,7.86
2017-12-21T06:17:11.789Z,7.76
2017-12-21T06:19:40.109Z,7.72
2017-12-21T06:22:08.436Z,7.72
2017-12-21T06:24:37.570Z,7.69
2017-12-21T06:27:05.883Z,7.68
2017-12-21T06:29:34.203Z,7.74
2017-12-21T06:32:02.598Z,7.70
2017-12-21T06:34:30.940Z,7.65
2017-12-21T06:37:00.090Z,7.77
2017-12-21T06:39:28.448Z,7.91
2017-12-21T06:41:56.880Z,7.92
2017-12-21T06:44:25.970Z,7.98
2017-12-21T06:46:54.289Z,7.91
2017-12-21T06:49:22.641Z,7.87
2017-12-21T06:51:51.743Z,7.93
2017-12-21T06:54:20.085Z,7.84
2017-12-21T06:56:48.405Z,7.90
2017-12-21T06:59:16.758Z,7.87
2017-12-21T07:01:45.839Z,7.87
2017-12-21T07:04:14.180Z,7.88
2017-12-21T07:06:42.523Z,7.79
2017-12-21T07:09:10.840Z,7.87
2017-12-21T07:11:39.160Z,7.97
2017-12-21T07:14:08.263Z,7.83
2017-12-21T07:16:37.391Z,7.84
2017-12-21T07:19:05.716Z,7.80
2017-12-21T07:21:34.050Z,7.83
2017-12-21T07:24:02.450Z,7.83
2017-12-21T07:26:30.791Z,7.86
2017-12-21T07:28:59.123Z,7.86
2017-12-21T07:31:27.460Z,7.86
2017-12-21T07:33:55.840Z,7.86
2017-12-21T07:36:24.187Z,7.89
2017-12-21T07:38:53.274Z,7.98
2017-12-21T07:41:22.395Z,8.03
2017-12-21T07:43:50.720Z,8.02
2017-12-21T07:46:19.097Z,8.08
2017-12-21T07:48:47.436Z,8.08
2017-12-21T07:51:15.764Z,8.07
2017-12-21T07:53:44.883Z,8.37
2017-12-21T07:56:14.036Z,8.14
2017-12-21T07:58:44.001Z,8.24
2017-12-21T08:01:12.320Z,8.20
2017-12-21T08:03:40.668Z,8.25
2017-12-21T08:06:08.987Z,8.42
2017-12-21T08:08:38.864Z,8.42
2017-12-21T08:11:07.203Z,8.16
2017-12-21T08:13:36.294Z,8.20
2017-12-21T08:16:05.420Z,8.13
2017-12-21T08:18:33.735Z,8.13
2017-12-21T08:21:02.089Z,8.11
2017-12-21T08:23:30.423Z,8.13
2017-12-21T08:25:59.538Z,8.07
2017-12-21T08:28:27.863Z,8.04
2017-12-21T08:30:56.241Z,8.06
2017-12-21T08:33:24.592Z,7.98
2017-12-21T08:35:52.915Z,7.98
2017-12-21T08:38:21.343Z,7.99
2017-12-21T08:40:49.668Z,8.02
2017-12-21T08:43:17.983Z,8.05
2017-12-21T08:45:46.314Z,8.02
2017-12-21T08:48:14.654Z,8.01
2017-12-21T08:50:42.974Z,8.04
2017-12-21T08:53:11.324Z,8.06
2017-12-21T08:55:39.661Z,8.10
2017-12-21T08:58:07.984Z,8.17
2017-12-21T09:00:36.344Z,8.14
2017-12-21T09:03:04.679Z,8.19
2017-12-21T09:05:33.762Z,8.25
2017-12-21T09:08:02.108Z,8.33
2017-12-21T09:10:30.435Z,8.41
2017-12-21T09:12:59.537Z,8.52
2017-12-21T09:15:28.679Z,8.69
2017-12-21T09:17:56.994Z,8.64
2017-12-21T09:20:26.188Z,8.61
2017-12-21T09:22:55.300Z,8.59
2017-12-21T09:25:24.422Z,8.57
2017-12-21T09:27:52.854Z,8.65
2017-12-21T09:30:21.233Z,9.09
2017-12-21T09:32:50.340Z,8.85
2017-12-21T09:35:19.455Z,8.78
2017-12-21T09:37:47.772Z,8.81
2017-12-21T09:40:16.214Z,8.76
2017-12-21T09:42:44.556Z,8.84
2017-12-21T09:45:12.887Z,8.92
2017-12-21T09:47:41.300Z,8.78
2017-12-21T09:50:09.861Z,8.79
2017-12-21T09:52:38.191Z,8.84
2017-12-21T09:55:06.525Z,8.83
2017-12-21T09:57:34.877Z,8.90
2017-12-21T10:00:03.195Z,8.82
2017-12-21T10:02:31.549Z,9.04
2017-12-21T10:04:59.909Z,8.99
2017-12-21T10:07:28.244Z,8.85
2017-12-21T10:09:57.333Z,8.92
2017-12-21T10:12:25.668Z,8.86
2017-12-21T10:14:53.976Z,8.84
2017-12-21T10:17:22.332Z,8.83
2017-12-21T10:19:50.664Z,8.85
2017-12-21T10:22:19.013Z,8.86
2017-12-21T10:24:47.328Z,8.83
2017-12-21T10:27:15.678Z,8.85
2017-12-21T10:29:44.774Z,8.91
2017-12-21T10:32:13.864Z,8.94
2017-12-21T10:34:42.208Z,9.01
2017-12-21T10:37:10.525Z,9.11
2017-12-21T10:39:39.747Z,9.03
2017-12-21T10:42:08.063Z,9.16
2017-12-21T10:44:36.394Z,9.08
2017-12-21T10:47:04.784Z,9.08
2017-12-21T10:49:33.101Z,9.03
2017-12-21T10:52:01.417Z,9.06
2017-12-21T10:54:30.544Z,9.01
2017-12-21T10:56:58.867Z,8.96
2017-12-21T10:59:27.186Z,9.14
2017-12-21T11:01:55.520Z,9.11
2017-12-21T11:04:23.840Z,9.03
2017-12-21T11:06:52.184Z,9.10
2017-12-21T11:09:21.263Z,8.99
2017-12-21T11:11:49.603Z,8.86
2017-12-21T11:14:17.943Z,8.85
2017-12-21T11:16:47.133Z,8.94
2017-12-21T11:19:16.248Z,9.07
2017-12-21T11:21:44.568Z,9.06
2017-12-21T11:24:12.914Z,9.10
2017-12-21T11:26:41.277Z,8.96
2017-12-21T11:29:09.621Z,9.04
2017-12-21T11:31:37.939Z,8.95
2017-12-21T11:34:06.281Z,8.86
2017-12-21T11:36:34.591Z,8.84
2017-12-21T11:39:02.933Z,8.74
2017-12-21T11:41:31.344Z,8.73
2017-12-21T11:43:59.719Z,8.70
2017-12-21T11:46:28.032Z,8.74
2017-12-21T11:48:56.367Z,8.70
2017-12-21T11:51:25.508Z,8.74
2017-12-21T11:53:53.854Z,8.71
2017-12-21T11:56:22.195Z,8.67
2017-12-21T11:58:50.553Z,8.61
2017-12-21T12:01:18.867Z,8.73
2017-12-21T12:03:47.952Z,8.72
2017-12-21T12:06:17.067Z,8.66
2017-12-21T12:08:45.400Z,8.64
2017-12-21T12:11:14.359Z,8.60
2017-12-21T12:13:42.703Z,8.54
2017-12-21T12:16:11.032Z,8.52
2017-12-21T12:18:39.402Z,8.50
2017-12-21T12:21:07.744Z,8.52
2017-12-21T12:23:36.825Z,8.48
2017-12-21T12:26:05.953Z,8.50
2017-12-21T12:28:34.304Z,8.57
2017-12-21T12:31:03.389Z,8.55
2017-12-21T12:33:32.475Z,8.66
2017-12-21T12:36:00.830Z,8.79
2017-12-21T12:38:29.153Z,8.95
2017-12-21T12:40:58.257Z,8.94
2017-12-21T12:43:26.586Z,8.92
2017-12-21T12:45:54.942Z,9.02
2017-12-21T12:48:23.313Z,9.11
2017-12-21T12:50:51.660Z,9.04
2017-12-21T12:53:20.751Z,9.06
2017-12-21T12:55:49.859Z,8.96
2017-12-21T12:58:18.213Z,8.94
2017-12-21T13:00:47.301Z,9.00
2017-12-21T13:03:15.672Z,8.93
2017-12-21T13:05:44.014Z,8.96
2017-12-21T13:08:12.349Z,9.01
2017-12-21T13:10:41.469Z,8.90
2017-12-21T13:13:09.780Z,8.94
2017-12-21T13:15:38.983Z,8.96
2017-12-21T13:18:07.300Z,8.83
2017-12-21T13:20:35.620Z,8.88
2017-12-21T13:23:03.983Z,8.82
2017-12-21T13:25:32.295Z,8.94
2017-12-21T13:28:00.632Z,8.91
2017-12-21T13:30:29.013Z,8.86
2017-12-21T13:32:57.330Z,8.88
2017-12-21T13:35:25.665Z,8.99
2017-12-21T13:37:54.037Z,8.93
2017-12-21T13:40:22.354Z,8.92
2017-12-21T13:42:50.692Z,8.87
2017-12-21T13:45:19.037Z,8.81
2017-12-21T13:47:48.115Z,8.81
2017-12-21T13:50:16.475Z,8.79
2017-12-21T13:52:44.791Z,8.78
2017-12-21T13:55:13.881Z,8.97
2017-12-21T13:57:42.254Z,8.90
2017-12-21T14:00:10.616Z,8.87
2017-12-21T14:02:38.940Z,8.85
2017-12-21T14:05:07.259Z,8.84
2017-12-21T14:07:35.608Z,8.87
2017-12-21T14:10:03.934Z,8.86
2017-12-21T14:12:32.251Z,8.81
2017-12-21T14:15:00.623Z,8.80
2017-12-21T14:17:28.959Z,8.73
2017-12-21T14:19:57.292Z,8.69
2017-12-21T14:22:25.632Z,8.69
2017-12-21T14:24:54.704Z,8.68
2017-12-21T14:27:23.233Z,8.64
2017-12-21T14:29:51.555Z,8.65
2017-12-21T14:32:19.954Z,8.64
2017-12-21T14:34:48.296Z,8.61
2017-12-21T14:37:16.616Z,8.60
2017-12-21T14:39:45.729Z,8.59
2017-12-21T14:42:14.097Z,8.54
2017-12-21T14:44:43.276Z,8.49
2017-12-21T14:47:11.604Z,8.51
2017-12-21T14:49:40.073Z,8.50
2017-12-21T14:52:08.439Z,8.49
2017-12-21T14:54:36.793Z,8.49
2017-12-21T14:57:05.895Z,8.46
2017-12-21T14:59:35.013Z,8.46
2017-12-21T15:02:03.349Z,8.50
2017-12-21T15:04:31.678Z,8.47
2017-12-21T15:07:00.028Z,8.45
2017-12-21T15:09:29.109Z,8.40
2017-12-21T15:11:57.449Z,8.42
2017-12-21T15:14:25.777Z,8.38
2017-12-21T15:16:54.856Z,8.30
2017-12-21T15:19:23.215Z,8.30
2017-12-21T15:21:51.583Z,8.29
2017-12-21T15:24:19.900Z,8.28
2017-12-21T15:26:49.024Z,8.27
2017-12-21T15:29:17.344Z,8.26
2017-12-21T15:31:45.692Z,8.19
2017-12-21T15:34:14.035Z,8.19
2017-12-21T15:36:43.163Z,8.19
2017-12-21T15:39:11.519Z,8.18
2017-12-21T15:41:39.834Z,8.10
2017-12-21T15:44:08.162Z,8.07
2017-12-21T15:46:37.280Z,8.11
2017-12-21T15:49:05.629Z,8.09
2017-12-21T15:54:09.345Z,8.04
2017-12-21T15:56:38.456Z,8.02
2017-12-21T15:59:06.812Z,8.02
2017-12-21T16:01:35.965Z,8.00
2017-12-21T16:04:04.291Z,7.93
2017-12-21T16:06:33.416Z,7.93
2017-12-21T16:09:01.756Z,7.93
2017-12-21T16:11:30.188Z,7.86
2017-12-21T16:13:58.536Z,7.87
2017-12-21T16:16:27.640Z,7.83
2017-12-21T16:18:56.241Z,7.79
2017-12-21T16:21:24.586Z,7.69
2017-12-21T16:23:53.674Z,7.67
2017-12-21T16:26:22.796Z,7.58
2017-12-21T16:28:51.156Z,7.53
2017-12-21T16:31:20.253Z,7.50
2017-12-21T16:33:48.618Z,7.45
2017-12-21T16:36:17.721Z,7.42
2017-12-21T16:38:46.812Z,7.38
2017-12-21T16:41:15.969Z,7.33
2017-12-21T16:43:44.321Z,7.33
2017-12-21T16:46:12.652Z,7.27
2017-12-21T16:48:41.003Z,7.22
2017-12-21T16:51:09.370Z,7.21
2017-12-21T16:53:37.700Z,7.21
2017-12-21T16:56:06.819Z,7.13
2017-12-21T16:58:35.183Z,7.18
2017-12-21T17:01:03.521Z,7.14
2017-12-21T17:03:31.851Z,7.13
2017-12-21T17:06:00.224Z,7.11
2017-12-21T17:08:28.537Z,7.11
2017-12-21T17:10:56.901Z,7.03
2017-12-21T17:13:25.227Z,7.02
2017-12-21T17:15:54.345Z,6.98
2017-12-21T17:18:22.660Z,6.98
2017-12-21T17:20:51.806Z,6.96
2017-12-21T17:23:20.918Z,6.96
2017-12-21T17:25:49.234Z,6.96
2017-12-21T17:28:17.592Z,6.91
2017-12-21T17:30:45.951Z,6.85
2017-12-21T17:33:14.296Z,6.89
2017-12-21T17:35:43.398Z,6.86
2017-12-21T17:38:12.480Z,6.86
2017-12-21T17:40:40.816Z,6.85
2017-12-21T17:43:09.144Z,6.83
2017-12-21T17:45:38.240Z,6.93
2017-12-21T17:48:07.328Z,6.83
2017-12-21T17:50:35.683Z,6.78
2017-12-21T17:53:04.020Z,6.84
2017-12-21T17:55:32.360Z,6.77
2017-12-21T17:58:00.711Z,6.75
2017-12-21T18:00:29.029Z,6.79
2017-12-21T18:02:58.213Z,6.81
2017-12-21T18:05:27.164Z,6.80
2017-12-21T18:07:55.492Z,6.78
2017-12-21T18:10:24.619Z,6.79
2017-12-21T18:12:52.954Z,6.73
2017-12-21T18:15:22.106Z,6.74
2017-12-21T18:17:50.438Z,6.68
2017-12-21T18:20:19.583Z,6.74
2017-12-21T18:22:47.935Z,6.77
2017-12-21T18:25:16.263Z,6.76
2017-12-21T18:27:44.631Z,6.71
2017-12-21T18:30:13.058Z,6.68
2017-12-21T18:32:41.380Z,6.64
2017-12-21T18:35:09.748Z,6.61
2017-12-21T18:37:38.132Z,6.56
2017-12-21T18:40:06.468Z,6.54
2017-12-21T18:42:34.800Z,6.49
2017-12-21T18:45:03.230Z,6.46
2017-12-21T18:47:31.541Z,6.49
2017-12-21T18:49:59.898Z,6.50
2017-12-21T18:52:28.252Z,6.47
2017-12-21T18:54:57.401Z,6.55
2017-12-21T18:57:25.777Z,6.58
2017-12-21T18:59:54.185Z,6.60
2017-12-21T19:02:22.512Z,6.67
2017-12-21T19:04:50.947Z,6.74
2017-12-21T19:07:20.163Z,6.80
2017-12-21T19:09:49.255Z,6.85
2017-12-21T19:12:18.334Z,6.81
2017-12-21T19:14:47.456Z,6.78
2017-12-21T19:17:15.792Z,6.80
2017-12-21T19:19:44.124Z,6.75
2017-12-21T19:22:12.491Z,6.77
2017-12-21T19:24:40.834Z,6.72
2017-12-21T19:27:09.940Z,6.70
2017-12-21T19:29:39.061Z,6.69
2017-12-21T19:32:07.406Z,6.77
2017-12-21T19:34:36.533Z,6.83
2017-12-21T19:37:04.891Z,6.78
2017-12-21T19:39:34.000Z,6.81
2017-12-21T19:42:02.435Z,6.78
2017-12-21T19:44:30.833Z,6.75
2017-12-21T19:46:59.941Z,6.79
2017-12-21T19:49:29.067Z,6.74
2017-12-21T19:51:57.389Z,6.61
2017-12-21T19:54:25.734Z,6.57
2017-12-21T19:56:54.164Z,6.45
2017-12-21T19:59:23.299Z,6.43
2017-12-21T20:01:51.627Z,6.44
2017-12-21T20:04:19.986Z,6.38
2017-12-21T20:06:48.348Z,6.40
2017-12-21T20:09:16.717Z,6.33
2017-12-21T20:11:45.061Z,6.30
2017-12-21T20:14:13.408Z,6.24
2017-12-21T20:16:41.752Z,6.25
2017-12-21T20:19:10.142Z,6.24
2017-12-21T20:21:38.547Z,6.22
2017-12-21T20:24:07.675Z,6.18
2017-12-21T20:26:36.031Z,6.17
2017-12-21T20:29:06.241Z,6.13
2017-12-21T20:31:35.389Z,6.06
2017-12-21T20:34:03.708Z,6.01
2017-12-21T20:36:32.045Z,5.97
2017-12-21T20:39:00.389Z,5.90
2017-12-21T20:41:29.483Z,5.85
2017-12-21T20:43:58.664Z,5.84
2017-12-21T20:46:27.790Z,5.75
2017-12-21T20:48:56.152Z,5.71
2017-12-21T20:51:25.235Z,5.65
2017-12-21T20:53:55.245Z,5.56
2017-12-21T20:56:23.585Z,5.49
2017-12-21T20:58:51.933Z,5.40
2017-12-21T21:01:20.259Z,5.37
2017-12-21T21:03:48.652Z,5.28
2017-12-21T21:06:16.983Z,5.24
2017-12-21T21:08:45.325Z,5.20
2017-12-21T21:11:14.440Z,5.18
2017-12-21T21:13:42.818Z,5.13
2017-12-21T21:16:11.167Z,5.06
2017-12-21T21:18:40.280Z,4.98
2017-12-21T21:21:08.625Z,4.94
2017-12-21T21:23:38.556Z,4.92
2017-12-21T21:26:07.645Z,4.91
2017-12-21T21:28:35.977Z,4.85
2017-12-21T21:31:04.359Z,4.81
2017-12-21T21:33:32.764Z,4.75
2017-12-21T21:36:01.109Z,4.75
2017-12-21T21:38:29.501Z,4.75
2017-12-21T21:40:57.960Z,4.74
2017-12-21T21:43:26.314Z,4.76
2017-12-21T21:45:54.972Z,4.83
2017-12-21T21:48:23.312Z,4.94
2017-12-21T21:50:51.688Z,5.02
2017-12-21T21:53:20.083Z,5.08
2017-12-21T21:55:48.408Z,5.12
2017-12-21T21:58:17.521Z,5.11
2017-12-21T22:00:45.894Z,5.11
2017-12-21T22:03:14.223Z,5.21
2017-12-21T22:05:42.543Z,5.31
2017-12-21T22:08:10.894Z,5.38
2017-12-21T22:10:39.229Z,5.43
2017-12-21T22:13:07.559Z,5.43
2017-12-21T22:15:36.716Z,5.48
2017-12-21T22:18:05.056Z,5.48
2017-12-21T22:20:33.371Z,5.56
2017-12-21T22:23:01.756Z,5.58
2017-12-21T22:25:30.116Z,5.60
2017-12-21T22:27:58.448Z,5.65
2017-12-21T22:30:27.591Z,5.72
2017-12-21T22:32:55.941Z,5.80
2017-12-21T22:35:24.256Z,5.84
2017-12-21T22:37:52.628Z,5.87
2017-12-21T22:40:20.953Z,5.95
2017-12-21T22:42:50.034Z,5.98
2017-12-21T22:45:19.145Z,6.00
2017-12-21T22:47:48.992Z,6.05
2017-12-21T22:50:17.365Z,6.10
2017-12-21T22:52:45.708Z,6.10
2017-12-21T22:55:14.053Z,6.12
2017-12-21T22:57:42.397Z,6.15
2017-12-21T23:00:10.724Z,6.12
2017-12-21T23:02:39.083Z,6.17
2017-12-21T23:05:07.432Z,6.21
2017-12-21T23:07:35.778Z,6.20
2017-12-21T23:10:04.917Z,6.23
2017-12-21T23:12:33.244Z,6.21
2017-12-21T23:15:01.598Z,6.26
2017-12-21T23:17:29.933Z,6.27
2017-12-21T23:19:58.312Z,6.23
2017-12-21T23:22:26.631Z,6.26
2017-12-21T23:24:54.966Z,6.28
2017-12-21T23:27:23.324Z,6.27
2017-12-21T23:29:51.649Z,6.31
2017-12-21T23:32:20.019Z,6.30
2017-12-21T23:34:48.368Z,6.30
2017-12-21T23:37:16.701Z,6.29
2017-12-21T23:39:45.048Z,6.35
2017-12-21T23:42:13.375Z,6.35
2017-12-21T23:44:42.485Z,6.37
2017-12-21T23:47:10.865Z,6.40
2017-12-21T23:49:39.252Z,6.42
2017-12-21T23:52:07.592Z,6.39
2017-12-21T23:54:36.702Z,6.45
2017-12-21T23:57:05.836Z,6.47
2017-12-21T23:59:34.411Z,6.54
